createdAt,value
2023-03-21T00:00:28.909Z,0.51
2023-03-21T04:48:33.102Z,0.51
2023-03-21T04:52:33.156Z,0.51
2023-03-21T05:00:33.158Z,0.51
2023-03-21T05:04:33.175Z,0.51
2023-03-21T05:12:33.285Z,0.51
2023-03-21T05:20:33.356Z,0.52
2023-03-21T05:24:33.384Z,0.50
2023-03-21T05:28:33.449Z,0.52
2023-03-21T05:32:33.476Z,0.52
2023-03-21T09:00:41.681Z,1.23
2023-03-21T09:40:41.726Z,3.88
2023-03-21T11:12:39.542Z,0.50
2023-03-21T11:16:41.032Z,0.54
2023-03-21T11:20:40.083Z,0.52
2023-03-21T11:24:39.658Z,0.51
2023-03-21T11:28:40.045Z,0.53
2023-03-21T11:32:40.048Z,0.52
2023-03-21T11:40:40.050Z,0.63
2023-03-21T11:44:40.055Z,1.13
2023-03-21T11:52:40.078Z,1.81
2023-03-21T12:08:41.579Z,3.35
2023-03-21T12:28:41.066Z,3.49
2023-03-21T15:20:47.425Z,2.01
2023-03-21T15:28:47.136Z,2.02
2023-03-21T15:32:48.487Z,1.98
2023-03-21T15:36:47.277Z,1.97
2023-03-21T15:40:47.142Z,2.00
2023-03-21T15:44:47.148Z,1.93
2023-03-21T15:48:47.148Z,1.90
2023-03-21T15:52:47.266Z,1.93
2023-03-21T15:56:47.043Z,1.92
2023-03-21T16:00:47.671Z,1.90
2023-03-21T16:04:47.654Z,1.91
2023-03-21T16:08:47.577Z,1.83
2023-03-21T16:12:47.653Z,1.82
2023-03-21T16:16:47.706Z,1.86
2023-03-21T16:20:47.654Z,1.80
2023-03-21T16:24:47.775Z,1.83
2023-03-21T16:28:47.579Z,1.78
2023-03-21T16:32:47.763Z,1.77
2023-03-21T16:36:47.979Z,1.76
2023-03-21T16:40:48.253Z,1.76
2023-03-21T16:44:48.663Z,1.77
2023-03-21T16:48:48.244Z,1.74
2023-03-21T16:52:48.249Z,1.73
2023-03-21T16:56:48.298Z,1.68
2023-03-21T17:00:48.302Z,1.65
2023-03-21T17:04:48.600Z,1.67
2023-03-21T17:08:48.837Z,1.67
2023-03-21T17:12:48.890Z,1.65
2023-03-21T21:05:21.494Z,1.06
2023-03-21T21:08:52.530Z,1.07
2023-03-21T21:12:52.585Z,1.06
2023-03-21T21:16:52.848Z,1.06
2023-03-21T21:20:52.620Z,1.04
2023-03-21T21:24:52.647Z,1.04
2023-03-21T21:28:52.705Z,1.01
2023-03-21T21:32:52.712Z,0.99
2023-03-21T21:36:52.734Z,0.96
2023-03-21T21:40:52.775Z,0.94
2023-03-21T21:44:52.822Z,0.94
2023-03-21T21:48:52.817Z,0.92
2023-03-21T21:52:53.034Z,0.92
2023-03-21T21:56:52.839Z,0.93
2023-03-21T22:00:52.933Z,0.91
2023-03-21T22:04:52.893Z,0.89
2023-03-21T22:08:52.877Z,0.89
2023-03-21T22:12:52.873Z,0.86
2023-03-21T22:16:52.886Z,0.87
2023-03-21T22:20:52.837Z,0.85
2023-03-21T22:24:52.850Z,0.83
2023-03-21T22:28:52.866Z,0.82
2023-03-21T22:33:07.992Z,0.83
2023-03-21T22:36:52.912Z,0.83
2023-03-21T22:40:52.936Z,0.82
2023-03-21T22:44:52.963Z,0.80
2023-03-21T23:32:52.980Z,0.70
2023-03-21T23:36:53.000Z,0.71
2023-03-21T23:40:52.991Z,0.71
2023-03-21T23:44:52.996Z,0.70
2023-03-21T23:48:53.018Z,0.70
2023-03-21T23:52:53.031Z,0.69
2023-03-21T23:56:53.020Z,0.68
